createdAt,value
2022-11-06T00:02:01.601Z,9.53
2022-11-06T00:04:30.162Z,10.23
2022-11-06T00:06:57.768Z,8.80
2022-11-06T00:09:25.317Z,9.37
2022-11-06T00:11:53.219Z,9.47
2022-11-06T00:14:20.891Z,13.03
2022-11-06T00:16:48.556Z,11.70
2022-11-06T00:19:16.851Z,10.10
2022-11-06T00:21:44.999Z,9.53
2022-11-06T00:24:14.492Z,9.47
2022-11-06T00:26:42.632Z,9.20
2022-11-06T00:29:14.385Z,11.10
2022-11-06T00:31:42.167Z,8.73
2022-11-06T00:34:10.805Z,11.83
2022-11-06T00:36:38.624Z,9.47
2022-11-06T00:39:06.598Z,10.20
2022-11-06T00:41:34.294Z,11.43
2022-11-06T00:44:02.971Z,10.93
2022-11-06T00:46:31.235Z,9.77
2022-11-06T00:48:58.718Z,10.17
2022-11-06T00:51:39.440Z,10.07
2022-11-06T00:54:11.013Z,16.60
2022-11-06T00:56:38.567Z,9.50
2022-11-06T00:59:08.121Z,9.87
2022-11-06T01:01:38.959Z,10.67
2022-11-06T01:04:11.919Z,9.57
2022-11-06T01:06:43.139Z,8.17
2022-11-06T01:09:13.653Z,8.67
2022-11-06T01:12:11.123Z,11.00
2022-11-06T01:14:31.537Z,9.33
2022-11-06T01:16:58.960Z,9.43
2022-11-06T01:19:26.561Z,9.33
2022-11-06T01:21:54.497Z,8.83
2022-11-06T01:24:25.437Z,7.90
2022-11-06T01:27:24.459Z,9.93
2022-11-06T01:29:41.287Z,8.03
2022-11-06T01:32:09.095Z,7.53
2022-11-06T01:34:36.597Z,6.70
2022-11-06T01:37:04.377Z,8.70
2022-11-06T01:39:32.347Z,8.83
2022-11-06T01:41:59.869Z,8.40
2022-11-06T01:44:36.078Z,7.83
2022-11-06T01:47:07.491Z,8.47
2022-11-06T01:49:38.399Z,9.37
2022-11-06T01:52:09.140Z,7.87
2022-11-06T01:54:40.295Z,9.03
2022-11-06T01:57:08.586Z,8.17
2022-11-06T01:59:40.187Z,6.33
2022-11-06T02:02:07.897Z,8.13
2022-11-06T02:04:42.916Z,7.90
2022-11-06T02:07:11.119Z,9.07
2022-11-06T02:09:39.140Z,8.13
2022-11-06T02:12:12.331Z,8.97
2022-11-06T02:15:08.468Z,7.67
2022-11-06T02:17:54.073Z,8.27
2022-11-06T02:20:32.443Z,11.50
2022-11-06T02:23:25.256Z,9.47
2022-11-06T02:26:11.122Z,9.43
2022-11-06T02:28:53.362Z,8.33
2022-11-06T02:31:26.120Z,7.97
2022-11-06T02:34:00.128Z,8.87
2022-11-06T02:36:34.986Z,10.10
2022-11-06T02:39:10.192Z,9.83
2022-11-06T02:41:42.459Z,9.73
2022-11-06T02:44:15.236Z,10.10
2022-11-06T02:46:51.609Z,12.07
2022-11-06T02:49:31.773Z,10.50
2022-11-06T02:52:06.815Z,11.30
2022-11-06T02:54:38.439Z,11.07
2022-11-06T02:57:10.624Z,11.10
2022-11-06T03:00:04.550Z,10.67
2022-11-06T03:03:01.272Z,9.17
2022-11-06T03:05:36.569Z,11.07
2022-11-06T03:08:34.553Z,12.53
2022-11-06T03:11:12.404Z,10.38
2022-11-06T03:13:51.423Z,10.97
2022-11-06T03:16:47.884Z,11.30
2022-11-06T03:19:15.317Z,11.13
2022-11-06T03:21:58.079Z,13.70
2022-11-06T03:24:34.952Z,12.90
2022-11-06T03:27:10.733Z,11.15
2022-11-06T03:29:49.665Z,10.50
2022-11-06T03:32:39.599Z,10.07
2022-11-06T03:35:15.454Z,10.87
2022-11-06T03:37:51.207Z,10.47
2022-11-06T03:40:22.248Z,10.00
2022-11-06T03:42:55.116Z,10.27
2022-11-06T03:45:26.829Z,10.17
2022-11-06T03:48:05.087Z,10.80
2022-11-06T03:50:37.701Z,9.77
2022-11-06T03:53:13.260Z,10.30
2022-11-06T03:56:02.525Z,10.40
2022-11-06T03:58:38.933Z,10.80
2022-11-06T04:01:10.625Z,10.77
2022-11-06T04:04:00.016Z,10.07
2022-11-06T04:06:32.743Z,12.47
2022-11-06T04:09:22.346Z,8.97
2022-11-06T04:12:09.456Z,12.10
2022-11-06T04:14:40.225Z,14.33
2022-11-06T04:17:12.342Z,10.63
2022-11-06T04:19:49.880Z,9.67
2022-11-06T04:22:32.635Z,9.00
2022-11-06T04:25:26.400Z,10.77
2022-11-06T04:28:26.118Z,11.43
2022-11-06T04:31:17.352Z,9.17
2022-11-06T04:34:02.917Z,10.53
2022-11-06T04:36:42.076Z,11.43
2022-11-06T04:39:28.993Z,9.87
2022-11-06T04:42:16.325Z,10.97
2022-11-06T04:44:50.722Z,9.77
2022-11-06T04:47:21.629Z,9.90
2022-11-06T04:49:52.315Z,12.73
2022-11-06T04:52:27.799Z,9.57
2022-11-06T04:54:57.938Z,11.07
2022-11-06T04:57:26.585Z,9.40
2022-11-06T04:59:54.562Z,10.57
2022-11-06T05:02:22.191Z,12.40
2022-11-06T05:04:49.778Z,11.57
2022-11-06T05:07:17.771Z,11.03
2022-11-06T05:09:45.891Z,10.90
2022-11-06T05:12:13.683Z,11.03
2022-11-06T05:14:41.168Z,13.33
2022-11-06T05:17:08.684Z,11.17
2022-11-06T05:19:36.174Z,10.97
2022-11-06T05:22:22.092Z,11.63
2022-11-06T05:24:49.587Z,12.23
2022-11-06T05:27:17.168Z,13.10
2022-11-06T05:29:44.682Z,11.43
2022-11-06T05:32:12.276Z,14.47
2022-11-06T05:34:39.804Z,13.70
2022-11-06T05:37:07.223Z,13.60
2022-11-06T05:39:39.005Z,13.93
2022-11-06T05:42:09.212Z,12.23
2022-11-06T05:44:37.827Z,12.43
2022-11-06T05:47:05.308Z,14.83
2022-11-06T05:49:32.970Z,15.57
2022-11-06T05:52:00.383Z,15.10
2022-11-06T05:54:27.937Z,13.57
2022-11-06T05:56:55.459Z,13.90
2022-11-06T05:59:22.980Z,13.93
2022-11-06T06:01:50.604Z,14.63
2022-11-06T06:04:18.309Z,12.47
2022-11-06T06:06:45.951Z,12.53
2022-11-06T06:09:13.419Z,12.63
2022-11-06T06:11:43.428Z,12.17
2022-11-06T06:14:11.018Z,13.80
2022-11-06T06:16:38.799Z,12.63
2022-11-06T06:19:06.262Z,10.80
2022-11-06T06:21:33.826Z,10.33
2022-11-06T06:24:01.327Z,10.47
2022-11-06T06:26:28.877Z,13.70
2022-11-06T06:28:56.336Z,12.40
2022-11-06T06:31:23.939Z,11.47
2022-11-06T06:33:51.380Z,12.03
2022-11-06T06:36:18.953Z,12.83
2022-11-06T06:38:46.497Z,9.27
2022-11-06T06:41:14.029Z,11.33
2022-11-06T06:43:41.663Z,12.67
2022-11-06T06:46:09.630Z,10.13
2022-11-06T06:48:37.251Z,11.57
2022-11-06T06:51:05.140Z,11.53
2022-11-06T06:53:32.608Z,9.87
2022-11-06T06:56:01.940Z,9.73
2022-11-06T06:58:30.139Z,9.10
2022-11-06T07:01:02.704Z,7.47
2022-11-06T07:03:30.434Z,8.23
2022-11-06T07:05:59.045Z,7.13
2022-11-06T07:08:27.839Z,8.53
2022-11-06T07:11:02.732Z,8.37
2022-11-06T07:13:35.468Z,6.87
2022-11-06T07:16:09.206Z,11.60
2022-11-06T07:18:38.154Z,8.33
2022-11-06T07:21:10.948Z,7.53
2022-11-06T07:23:38.994Z,11.47
2022-11-06T07:26:06.779Z,12.10
2022-11-06T07:28:34.592Z,9.97
2022-11-06T07:31:04.495Z,9.47
2022-11-06T07:33:32.417Z,7.63
2022-11-06T07:36:08.999Z,6.47
2022-11-06T07:38:38.154Z,5.97
2022-11-06T07:41:08.698Z,7.00
2022-11-06T07:43:36.784Z,8.03
2022-11-06T07:46:07.180Z,6.57
2022-11-06T07:48:34.970Z,8.43
2022-11-06T07:51:04.560Z,6.57
2022-11-06T07:53:32.737Z,6.20
2022-11-06T07:56:00.693Z,6.80
2022-11-06T07:58:28.610Z,6.50
2022-11-06T08:00:58.611Z,6.20
2022-11-06T08:03:27.267Z,7.70
2022-11-06T08:05:55.172Z,8.07
2022-11-06T08:08:23.147Z,6.67
2022-11-06T08:10:52.267Z,7.67
2022-11-06T08:13:19.887Z,7.97
2022-11-06T08:15:47.532Z,8.47
2022-11-06T08:18:15.476Z,6.70
2022-11-06T08:20:43.248Z,6.73
2022-11-06T08:23:13.286Z,8.23
2022-11-06T08:25:41.171Z,9.07
2022-11-06T08:28:09.978Z,7.87
2022-11-06T08:30:37.822Z,13.17
2022-11-06T08:33:08.142Z,7.30
2022-11-06T08:35:36.057Z,7.70
2022-11-06T08:38:04.474Z,6.90
2022-11-06T08:40:32.447Z,7.13
2022-11-06T08:43:05.151Z,7.50
2022-11-06T08:45:35.950Z,7.53
2022-11-06T08:48:04.350Z,8.40
2022-11-06T08:50:33.181Z,6.90
2022-11-06T08:53:04.371Z,12.00
2022-11-06T08:55:33.850Z,12.73
2022-11-06T08:58:01.723Z,11.03
2022-11-06T09:00:29.637Z,10.13
2022-11-06T09:03:02.185Z,9.80
2022-11-06T09:05:31.122Z,10.10
2022-11-06T09:07:59.542Z,8.00
2022-11-06T09:10:28.101Z,11.00
2022-11-06T09:12:58.638Z,11.50
2022-11-06T09:15:26.841Z,11.10
2022-11-06T09:17:54.962Z,13.83
2022-11-06T09:20:24.834Z,13.97
2022-11-06T09:22:52.857Z,12.30
2022-11-06T09:25:20.398Z,9.87
2022-11-06T09:27:58.763Z,12.70
2022-11-06T09:30:29.759Z,12.17
2022-11-06T09:32:59.848Z,14.27
2022-11-06T09:35:36.670Z,12.07
2022-11-06T09:38:06.183Z,13.27
2022-11-06T09:40:42.666Z,11.20
2022-11-06T09:46:26.327Z,8.97
2022-11-06T09:49:17.129Z,10.37
2022-11-06T09:52:16.844Z,9.83
2022-11-06T09:54:55.989Z,14.27
2022-11-06T09:58:05.799Z,10.67
2022-11-06T10:00:33.209Z,12.25
2022-11-06T10:03:12.723Z,10.90
2022-11-06T10:05:41.663Z,11.30
2022-11-06T10:08:22.422Z,9.17
2022-11-06T10:11:54.214Z,11.00
2022-11-06T10:14:30.261Z,10.40
2022-11-06T10:17:03.455Z,10.93
2022-11-06T10:19:30.891Z,7.63
2022-11-06T10:22:07.306Z,9.77
2022-11-06T10:24:53.271Z,7.87
2022-11-06T10:27:33.455Z,7.27
2022-11-06T10:30:21.240Z,8.17
2022-11-06T10:33:26.136Z,7.82
2022-11-06T10:36:09.943Z,7.97
2022-11-06T10:38:47.278Z,8.60
2022-11-06T10:41:23.835Z,6.53
2022-11-06T10:44:14.982Z,7.73
2022-11-06T10:46:52.046Z,6.70
2022-11-06T10:49:45.165Z,6.47
2022-11-06T10:52:33.866Z,7.73
2022-11-06T10:55:01.256Z,9.60
2022-11-06T10:57:43.876Z,7.47
2022-11-06T11:00:14.167Z,6.70
2022-11-06T11:02:48.690Z,10.73
2022-11-06T11:05:19.659Z,6.77
2022-11-06T11:07:51.627Z,7.93
2022-11-06T11:10:32.872Z,10.43
2022-11-06T11:13:07.076Z,6.37
2022-11-06T11:15:46.933Z,6.80
2022-11-06T11:18:34.378Z,6.93
2022-11-06T11:21:18.623Z,7.55
2022-11-06T11:24:04.162Z,7.90
2022-11-06T11:27:01.103Z,8.57
2022-11-06T11:29:45.360Z,8.30
2022-11-06T11:32:16.088Z,8.70
2022-11-06T11:34:51.358Z,10.10
2022-11-06T11:37:28.434Z,9.63
2022-11-06T11:40:16.354Z,10.93
2022-11-06T11:42:43.939Z,9.63
2022-11-06T11:45:14.866Z,7.97
2022-11-06T11:47:46.817Z,8.97
2022-11-06T11:50:20.616Z,7.87
2022-11-06T11:52:52.765Z,9.17
2022-11-06T11:55:26.756Z,7.07
2022-11-06T11:57:57.704Z,8.70
2022-11-06T12:00:26.192Z,11.77
2022-11-06T12:02:58.980Z,8.23
2022-11-06T12:05:35.059Z,9.43
2022-11-06T12:08:03.407Z,9.97
2022-11-06T12:10:33.863Z,10.90
2022-11-06T12:13:22.359Z,8.50
2022-11-06T12:16:07.011Z,11.20
2022-11-06T12:18:41.067Z,9.93
2022-11-06T12:21:22.172Z,9.87
2022-11-06T12:24:00.220Z,10.90
2022-11-06T12:26:37.549Z,9.13
2022-11-06T12:29:11.931Z,10.40
2022-11-06T12:31:59.594Z,10.87
2022-11-06T12:34:54.455Z,11.10
2022-11-06T12:37:40.359Z,9.63
2022-11-06T12:40:25.658Z,13.00
2022-11-06T12:43:07.102Z,13.10
2022-11-06T12:46:08.546Z,11.60
2022-11-06T12:48:48.095Z,10.23
2022-11-06T12:51:37.042Z,9.60
2022-11-06T12:54:41.451Z,9.73
2022-11-06T12:57:30.640Z,12.67
2022-11-06T13:00:21.179Z,10.90
2022-11-06T13:03:10.865Z,12.23
2022-11-06T13:05:47.567Z,9.27
2022-11-06T13:08:35.828Z,8.93
2022-11-06T13:11:09.590Z,11.30
2022-11-06T13:13:50.039Z,9.87
2022-11-06T13:16:28.261Z,8.53
2022-11-06T13:19:15.630Z,9.10
2022-11-06T13:21:52.278Z,8.80
2022-11-06T13:24:44.467Z,9.00
2022-11-06T13:27:38.528Z,9.03
2022-11-06T13:30:17.211Z,10.90
2022-11-06T13:33:10.122Z,8.87
2022-11-06T13:35:41.601Z,6.47
2022-11-06T13:38:16.873Z,8.10
2022-11-06T13:40:48.595Z,8.50
2022-11-06T13:43:29.690Z,7.83
2022-11-06T13:46:18.999Z,6.17
2022-11-06T13:49:08.153Z,8.57
2022-11-06T13:51:42.617Z,7.47
2022-11-06T13:54:15.210Z,5.93
2022-11-06T13:57:05.717Z,6.77
2022-11-06T13:59:39.144Z,10.30
2022-11-06T14:02:33.910Z,6.70
2022-11-06T14:05:04.081Z,5.57
2022-11-06T14:07:34.169Z,5.87
2022-11-06T14:10:02.139Z,5.13
2022-11-06T14:12:30.560Z,6.03
2022-11-06T14:15:19.331Z,6.80
2022-11-06T14:18:01.450Z,5.33
2022-11-06T14:20:29.250Z,4.93
2022-11-06T14:23:31.577Z,6.67
2022-11-06T14:26:11.496Z,9.40
2022-11-06T14:28:41.845Z,4.47
2022-11-06T14:31:14.022Z,7.13
2022-11-06T14:33:43.312Z,5.70
2022-11-06T14:36:25.874Z,4.77
2022-11-06T14:38:54.211Z,5.53
2022-11-06T14:41:36.689Z,7.03
2022-11-06T14:44:26.190Z,6.17
2022-11-06T14:46:59.988Z,6.67
2022-11-06T14:49:38.405Z,6.67
2022-11-06T14:52:15.849Z,6.73
2022-11-06T14:54:50.894Z,8.90
2022-11-06T14:57:35.820Z,5.00
2022-11-06T15:00:04.607Z,6.53
2022-11-06T15:02:34.796Z,7.90
2022-11-06T15:05:08.597Z,6.70
2022-11-06T15:08:10.657Z,8.50
2022-11-06T15:10:44.290Z,9.97
2022-11-06T15:13:18.026Z,7.43
2022-11-06T15:15:50.513Z,6.97
2022-11-06T15:18:22.875Z,5.57
2022-11-06T15:21:01.066Z,7.50
2022-11-06T15:26:07.833Z,5.70
2022-11-06T15:28:46.603Z,5.65
2022-11-06T15:31:18.939Z,7.57
2022-11-06T15:34:24.955Z,6.83
2022-11-06T15:37:03.722Z,7.07
2022-11-06T15:39:38.138Z,6.63
2022-11-06T15:42:13.538Z,8.73
2022-11-06T15:44:42.394Z,8.53
2022-11-06T15:47:27.234Z,7.43
2022-11-06T15:50:17.002Z,8.60
2022-11-06T15:52:46.153Z,8.77
2022-11-06T15:55:28.707Z,10.23
2022-11-06T15:58:30.393Z,8.63
2022-11-06T16:01:03.178Z,9.67
2022-11-06T16:03:32.387Z,8.73
2022-11-06T16:06:03.503Z,12.10
2022-11-06T16:08:32.501Z,11.03
2022-11-06T16:11:01.374Z,9.70
2022-11-06T16:13:29.362Z,13.47
2022-11-06T16:15:59.419Z,12.70
2022-11-06T16:18:35.757Z,10.33
2022-11-06T16:21:19.355Z,15.00
2022-11-06T16:23:51.419Z,11.53
2022-11-06T16:26:32.682Z,14.30
2022-11-06T16:29:00.721Z,9.77
2022-11-06T16:31:30.921Z,11.30
2022-11-06T16:33:58.337Z,11.03
2022-11-06T16:36:28.227Z,12.73
2022-11-06T16:39:47.633Z,9.77
2022-11-06T16:42:22.617Z,10.50
2022-11-06T16:45:21.508Z,10.80
2022-11-06T16:48:07.218Z,13.97
2022-11-06T16:50:53.208Z,10.33
2022-11-06T16:53:29.608Z,9.20
2022-11-06T16:56:03.285Z,9.93
2022-11-06T16:58:34.898Z,9.97
2022-11-06T17:01:06.371Z,9.83
2022-11-06T17:03:40.855Z,8.87
2022-11-06T17:06:21.429Z,11.10
2022-11-06T17:09:09.904Z,9.23
2022-11-06T17:11:38.902Z,9.20
2022-11-06T17:14:18.556Z,8.90
2022-11-06T17:16:49.910Z,14.90
2022-11-06T17:19:19.403Z,11.13
2022-11-06T17:21:47.625Z,19.53
2022-11-06T17:27:02.650Z,13.05
2022-11-06T17:29:30.200Z,10.10
2022-11-06T17:31:57.708Z,9.17
2022-11-06T17:34:25.174Z,10.10
2022-11-06T17:36:52.845Z,10.13
2022-11-06T17:39:20.567Z,9.87
2022-11-06T17:41:48.169Z,11.13
2022-11-06T17:44:15.735Z,9.17
2022-11-06T17:46:47.971Z,11.80
2022-11-06T17:49:18.487Z,10.47
2022-11-06T17:51:52.942Z,12.43
2022-11-06T17:54:22.955Z,9.47
2022-11-06T17:56:51.563Z,9.60
2022-11-06T17:59:20.065Z,9.93
2022-11-06T18:01:51.020Z,13.67
2022-11-06T18:04:20.318Z,9.43
2022-11-06T18:06:49.523Z,8.93
2022-11-06T18:09:17.036Z,10.97
2022-11-06T18:11:44.729Z,10.60
2022-11-06T18:14:12.740Z,11.43
2022-11-06T18:16:43.984Z,12.00
2022-11-06T18:19:15.077Z,13.00
2022-11-06T18:21:42.685Z,10.00
2022-11-06T18:24:10.237Z,16.60
2022-11-06T18:26:37.876Z,11.13
2022-11-06T18:29:06.953Z,15.37
2022-11-06T18:31:35.584Z,39.03
2022-11-06T18:34:04.262Z,13.83
2022-11-06T18:36:33.412Z,12.93
2022-11-06T18:39:00.931Z,12.73
2022-11-06T18:41:29.962Z,12.77
2022-11-06T18:43:58.306Z,13.13
2022-11-06T18:46:30.003Z,13.10
2022-11-06T18:48:58.414Z,13.83
2022-11-06T18:51:35.495Z,12.80
2022-11-06T18:54:09.302Z,14.43
2022-11-06T18:56:38.700Z,16.70
2022-11-06T18:59:10.315Z,15.20
2022-11-06T19:01:38.167Z,14.50
2022-11-06T19:04:05.979Z,15.67
2022-11-06T19:06:33.594Z,17.43
2022-11-06T19:09:01.273Z,14.60
2022-11-06T19:11:28.776Z,15.60
2022-11-06T19:13:56.459Z,16.63
2022-11-06T19:16:24.134Z,13.40
2022-11-06T19:21:30.955Z,16.50
2022-11-06T19:24:04.664Z,19.30
2022-11-06T19:26:35.661Z,13.60
2022-11-06T19:29:05.945Z,15.70
2022-11-06T19:31:34.139Z,13.67
2022-11-06T19:34:05.442Z,16.10
2022-11-06T19:36:33.560Z,15.93
2022-11-06T19:39:01.750Z,14.53
2022-11-06T19:41:31.870Z,15.40
2022-11-06T19:43:59.499Z,16.43
2022-11-06T19:46:31.109Z,16.93
2022-11-06T19:49:04.419Z,15.87
2022-11-06T19:51:33.577Z,16.63
2022-11-06T19:54:05.910Z,14.43
2022-11-06T19:56:33.598Z,14.60
2022-11-06T19:59:02.135Z,14.23
2022-11-06T20:01:30.144Z,12.17
2022-11-06T20:03:57.769Z,14.87
2022-11-06T20:06:27.529Z,14.07
2022-11-06T20:08:55.263Z,13.87
2022-11-06T20:11:22.870Z,14.47
2022-11-06T20:13:50.388Z,13.63
2022-11-06T20:16:20.279Z,12.93
2022-11-06T20:18:53.031Z,11.53
2022-11-06T20:21:21.506Z,12.77
2022-11-06T20:23:49.641Z,15.80
2022-11-06T20:26:17.515Z,14.00
2022-11-06T20:28:47.551Z,13.60
2022-11-06T20:31:19.517Z,13.20
2022-11-06T20:33:47.846Z,13.17
2022-11-06T20:36:23.254Z,11.30
2022-11-06T20:38:56.678Z,11.80
2022-11-06T20:41:24.934Z,11.07
2022-11-06T20:43:53.512Z,10.37
2022-11-06T20:46:22.364Z,12.80
2022-11-06T20:48:50.359Z,12.27
2022-11-06T20:51:23.544Z,11.63
2022-11-06T20:53:51.229Z,10.50
2022-11-06T20:56:20.872Z,11.67
2022-11-06T20:58:48.581Z,10.87
2022-11-06T21:01:19.943Z,13.00
2022-11-06T21:03:50.006Z,11.20
2022-11-06T21:06:18.912Z,9.90
2022-11-06T21:08:47.289Z,12.43
2022-11-06T21:11:18.149Z,13.53
2022-11-06T21:13:48.520Z,10.27
2022-11-06T21:16:25.940Z,11.33
2022-11-06T21:18:54.099Z,9.88
2022-11-06T21:21:25.245Z,12.47
2022-11-06T21:23:54.019Z,9.90
2022-11-06T21:26:36.731Z,10.67
2022-11-06T21:29:07.074Z,12.57
2022-11-06T21:31:35.063Z,10.93
2022-11-06T21:34:04.242Z,10.07
2022-11-06T21:36:36.992Z,11.47
2022-11-06T21:39:10.652Z,11.80
2022-11-06T21:41:39.083Z,13.10
2022-11-06T21:44:07.728Z,14.37
2022-11-06T21:46:35.316Z,11.87
2022-11-06T21:49:02.768Z,11.93
2022-11-06T21:51:32.952Z,12.00
2022-11-06T21:54:19.108Z,8.97
2022-11-06T21:56:50.768Z,9.27
2022-11-06T21:59:24.924Z,10.30
2022-11-06T22:01:52.986Z,11.57
2022-11-06T22:04:21.027Z,10.77
2022-11-06T22:06:48.545Z,10.90
2022-11-06T22:09:19.545Z,11.27
2022-11-06T22:11:49.644Z,10.47
2022-11-06T22:14:17.458Z,10.20
2022-11-06T22:16:46.890Z,9.60
2022-11-06T22:19:17.671Z,10.00
2022-11-06T22:21:45.672Z,12.37
2022-11-06T22:24:13.858Z,10.60
2022-11-06T22:26:41.430Z,10.97
2022-11-06T22:29:13.685Z,14.23
2022-11-06T22:31:41.212Z,11.03
2022-11-06T22:34:10.763Z,9.90
2022-11-06T22:36:38.861Z,9.50
2022-11-06T22:39:09.020Z,10.57
2022-11-06T22:41:39.246Z,11.33
2022-11-06T22:44:07.633Z,10.77
2022-11-06T22:46:35.400Z,11.20
2022-11-06T22:49:04.408Z,10.37
2022-11-06T22:51:33.256Z,10.33
2022-11-06T22:54:02.157Z,12.37
2022-11-06T22:56:31.217Z,11.50
2022-11-06T22:59:05.515Z,12.80
2022-11-06T23:01:38.689Z,9.10
2022-11-06T23:04:15.012Z,14.90
2022-11-06T23:06:44.476Z,9.83
2022-11-06T23:09:12.537Z,10.27
2022-11-06T23:11:40.030Z,11.27
2022-11-06T23:14:09.169Z,11.20
2022-11-06T23:16:55.813Z,12.57
2022-11-06T23:19:24.470Z,12.37
2022-11-06T23:21:52.691Z,11.43
2022-11-06T23:24:20.137Z,12.43
2022-11-06T23:26:47.646Z,11.87
2022-11-06T23:29:15.256Z,10.73
2022-11-06T23:31:42.689Z,11.77
2022-11-06T23:34:10.228Z,12.73
2022-11-06T23:36:37.741Z,12.37
2022-11-06T23:39:05.524Z,13.93
2022-11-06T23:41:48.368Z,13.13
2022-11-06T23:44:34.362Z,12.80
2022-11-06T23:47:02.188Z,11.47
2022-11-06T23:49:30.058Z,10.50
2022-11-06T23:51:57.955Z,11.57
2022-11-06T23:54:25.805Z,13.30
2022-11-06T23:56:53.369Z,13.67
2022-11-06T23:59:21.142Z,14.37
